createdAt,value
2023-03-05T00:00:54.960Z,99.90
2023-03-05T00:03:22.277Z,99.90
2023-03-05T00:05:49.524Z,99.90
2023-03-05T00:08:16.734Z,99.90
2023-03-05T00:10:43.960Z,99.90
2023-03-05T00:13:11.194Z,99.90
2023-03-05T00:15:42.289Z,99.90
2023-03-05T00:18:09.521Z,99.90
2023-03-05T00:20:36.687Z,99.90
2023-03-05T00:23:03.861Z,99.90
2023-03-05T00:25:31.065Z,99.90
2023-03-05T00:27:58.335Z,99.90
2023-03-05T00:30:25.545Z,99.90
2023-03-05T00:32:52.776Z,99.90
2023-03-05T00:35:19.977Z,99.90
2023-03-05T00:37:48.963Z,99.90
2023-03-05T00:40:16.204Z,99.90
2023-03-05T00:42:43.421Z,99.90
2023-03-05T00:45:10.904Z,99.90
2023-03-05T00:47:38.503Z,99.90
2023-03-05T00:50:07.282Z,99.90
2023-03-05T00:52:34.570Z,99.90
2023-03-05T00:55:01.784Z,99.90
2023-03-05T00:57:29.003Z,99.90
2023-03-05T00:59:56.182Z,99.90
2023-03-05T01:02:23.446Z,99.90
2023-03-05T01:04:51.128Z,99.90
2023-03-05T01:07:18.618Z,99.90
2023-03-05T01:09:45.879Z,99.90
2023-03-05T01:12:13.267Z,99.90
2023-03-05T01:14:40.598Z,99.90
2023-03-05T01:17:08.033Z,99.90
2023-03-05T01:19:35.288Z,99.90
2023-03-05T01:22:02.520Z,99.90
2023-03-05T01:24:30.960Z,99.90
2023-03-05T01:26:58.310Z,99.90
2023-03-05T01:29:25.530Z,99.90
2023-03-05T01:31:52.768Z,99.90
2023-03-05T01:34:21.395Z,99.90
2023-03-05T01:36:50.539Z,99.90
2023-03-05T01:39:17.794Z,99.90
2023-03-05T01:41:45.102Z,99.90
2023-03-05T01:44:21.223Z,99.90
2023-03-05T01:46:48.625Z,99.90
2023-03-05T01:49:33.900Z,99.90
2023-03-05T01:52:13.971Z,99.90
2023-03-05T01:54:52.156Z,99.90
2023-03-05T01:57:32.269Z,99.90
2023-03-05T02:00:02.662Z,99.90
2023-03-05T02:02:41.424Z,99.90
2023-03-05T02:05:10.815Z,99.90
2023-03-05T02:07:40.151Z,99.90
2023-03-05T02:10:18.255Z,99.90
2023-03-05T02:12:46.132Z,99.90
2023-03-05T02:15:13.371Z,99.90
2023-03-05T02:17:40.800Z,99.90
2023-03-05T02:20:10.685Z,99.90
2023-03-05T02:22:37.970Z,99.90
2023-03-05T02:25:15.670Z,99.90
2023-03-05T02:27:44.453Z,99.90
2023-03-05T02:30:12.642Z,99.90
2023-03-05T02:32:39.984Z,99.90
2023-03-05T02:35:08.876Z,99.90
2023-03-05T02:37:36.138Z,99.90
2023-03-05T02:40:03.614Z,99.90
2023-03-05T02:42:33.552Z,99.90
2023-03-05T02:45:01.973Z,99.90
2023-03-05T02:47:29.266Z,99.90
2023-03-05T02:49:56.814Z,99.90
2023-03-05T02:52:25.511Z,99.90
2023-03-05T02:54:53.073Z,99.90
2023-03-05T02:57:20.409Z,99.90
2023-03-05T02:59:48.680Z,99.90
2023-03-05T03:02:17.061Z,99.90
2023-03-05T03:04:44.937Z,99.90
2023-03-05T03:07:12.847Z,99.90
2023-03-05T03:09:40.072Z,99.90
2023-03-05T03:12:07.444Z,99.90
2023-03-05T03:14:39.394Z,99.90
2023-03-05T03:17:10.664Z,99.90
2023-03-05T03:19:38.419Z,99.90
2023-03-05T03:22:06.470Z,99.90
2023-03-05T03:24:34.020Z,99.90
2023-03-05T03:27:01.674Z,99.90
2023-03-05T03:29:28.841Z,99.90
2023-03-05T03:31:56.111Z,99.90
2023-03-05T03:34:23.631Z,99.90
2023-03-05T03:36:51.138Z,99.90
2023-03-05T03:39:19.281Z,99.90
2023-03-05T03:41:48.164Z,99.90
2023-03-05T03:44:17.561Z,99.90
2023-03-05T03:46:46.329Z,99.90
2023-03-05T03:49:17.891Z,99.90
2023-03-05T03:51:45.114Z,99.90
2023-03-05T03:54:12.510Z,99.90
2023-03-05T03:56:39.698Z,99.90
2023-03-05T03:59:06.957Z,99.90
2023-03-05T04:01:34.249Z,99.90
2023-03-05T04:04:01.620Z,99.90
2023-03-05T04:06:28.862Z,99.90
2023-03-05T04:08:56.046Z,99.90
2023-03-05T04:11:23.413Z,99.90
2023-03-05T04:13:51.088Z,99.90
2023-03-05T04:16:19.380Z,99.90
2023-03-05T04:18:46.717Z,99.90
2023-03-05T04:21:13.995Z,99.90
2023-03-05T04:23:41.494Z,99.90
2023-03-05T04:26:08.714Z,99.90
2023-03-05T04:28:36.077Z,99.90
2023-03-05T04:31:03.883Z,99.90
2023-03-05T04:33:31.310Z,99.90
2023-03-05T04:35:58.563Z,99.90
2023-03-05T04:38:25.789Z,99.90
2023-03-05T04:40:52.982Z,99.90
2023-03-05T04:43:20.174Z,99.90
2023-03-05T04:45:47.373Z,99.90
2023-03-05T04:48:14.654Z,99.90
2023-03-05T04:50:41.854Z,99.90
2023-03-05T04:53:09.044Z,99.90
2023-03-05T04:55:36.324Z,99.90
2023-03-05T04:58:03.511Z,99.90
2023-03-05T05:00:30.691Z,99.90
2023-03-05T05:02:58.004Z,99.90
2023-03-05T05:05:26.512Z,99.90
2023-03-05T05:07:55.239Z,99.90
2023-03-05T05:10:22.449Z,99.90
2023-03-05T05:12:49.612Z,99.90
2023-03-05T05:15:16.873Z,99.90
2023-03-05T05:17:44.423Z,99.90
2023-03-05T05:20:13.099Z,99.90
2023-03-05T05:22:40.540Z,99.90
2023-03-05T05:25:08.017Z,99.90
2023-03-05T05:27:35.198Z,99.90
2023-03-05T05:30:02.587Z,99.90
2023-03-05T05:32:29.852Z,99.90
2023-03-05T05:34:58.107Z,99.90
2023-03-05T05:37:25.796Z,99.90
2023-03-05T05:39:53.038Z,99.90
2023-03-05T05:42:21.625Z,99.90
2023-03-05T05:44:48.842Z,99.90
2023-03-05T05:47:16.414Z,99.90
2023-03-05T05:49:43.589Z,99.90
2023-03-05T05:52:11.062Z,99.90
2023-03-05T05:54:38.539Z,99.90
2023-03-05T05:57:06.302Z,99.90
2023-03-05T05:59:33.550Z,99.90
2023-03-05T06:02:00.976Z,99.90
2023-03-05T06:04:28.174Z,99.90
2023-03-05T06:06:55.596Z,99.90
2023-03-05T06:09:22.864Z,99.90
2023-03-05T06:11:50.554Z,99.90
2023-03-05T06:14:17.771Z,99.90
2023-03-05T06:16:45.019Z,99.90
2023-03-05T06:19:13.236Z,99.90
2023-03-05T06:21:40.842Z,99.90
2023-03-05T06:24:08.192Z,99.90
2023-03-05T06:26:35.687Z,99.90
2023-03-05T06:29:03.122Z,99.90
2023-03-05T06:31:30.536Z,99.90
2023-03-05T06:33:58.914Z,99.90
2023-03-05T06:36:26.158Z,99.90
2023-03-05T06:38:53.751Z,99.90
2023-03-05T06:41:22.366Z,99.90
2023-03-05T06:43:49.850Z,99.90
2023-03-05T06:46:24.361Z,99.90
2023-03-05T06:48:52.441Z,99.90
2023-03-05T06:51:21.398Z,99.90
2023-03-05T06:53:49.606Z,99.90
2023-03-05T06:56:18.021Z,99.90
2023-03-05T06:58:46.119Z,99.90
2023-03-05T07:01:14.163Z,99.90
2023-03-05T07:03:41.769Z,99.90
2023-03-05T07:06:13.816Z,99.90
2023-03-05T07:08:41.079Z,99.90
2023-03-05T07:11:12.283Z,99.90
2023-03-05T07:13:39.744Z,99.90
2023-03-05T07:16:08.116Z,99.90
2023-03-05T07:18:35.621Z,99.90
2023-03-05T07:21:06.495Z,99.90
2023-03-05T07:23:34.110Z,99.90
2023-03-05T07:26:02.434Z,99.90
2023-03-05T07:28:29.662Z,99.90
2023-03-05T07:30:58.224Z,99.90
2023-03-05T07:33:25.989Z,99.90
2023-03-05T07:35:53.597Z,99.90
2023-03-05T07:38:20.815Z,99.90
2023-03-05T07:40:48.124Z,99.90
2023-03-05T07:43:15.333Z,99.90
2023-03-05T07:45:43.138Z,99.90
2023-03-05T07:48:15.216Z,99.90
2023-03-05T07:50:42.790Z,99.90
2023-03-05T07:53:10.248Z,99.90
2023-03-05T07:55:47.246Z,99.90
2023-03-05T07:58:14.620Z,99.90
2023-03-05T08:00:41.885Z,99.90
2023-03-05T08:03:09.128Z,99.90
2023-03-05T08:05:39.057Z,99.90
2023-03-05T08:08:06.871Z,99.90
2023-03-05T08:10:34.517Z,99.90
2023-03-05T08:13:01.837Z,99.90
2023-03-05T08:15:29.084Z,99.90
2023-03-05T08:17:56.286Z,99.90
2023-03-05T08:20:23.644Z,99.90
2023-03-05T08:22:50.851Z,99.90
2023-03-05T08:25:18.083Z,99.90
2023-03-05T08:27:46.314Z,99.90
2023-03-05T08:30:15.862Z,99.90
2023-03-05T08:32:43.107Z,99.90
2023-03-05T08:35:10.611Z,99.90
2023-03-05T08:37:38.034Z,99.90
2023-03-05T08:40:05.592Z,99.90
2023-03-05T08:42:32.774Z,99.90
2023-03-05T08:44:59.979Z,99.90
2023-03-05T08:47:27.498Z,99.90
2023-03-05T08:49:55.793Z,99.90
2023-03-05T08:52:23.572Z,99.90
2023-03-05T08:54:50.777Z,99.90
2023-03-05T08:57:18.243Z,99.90
2023-03-05T08:59:45.558Z,99.90
2023-03-05T09:02:13.454Z,99.90
2023-03-05T09:04:40.804Z,99.90
2023-03-05T09:07:08.062Z,99.90
2023-03-05T09:09:35.437Z,99.90
2023-03-05T09:12:02.927Z,99.90
2023-03-05T09:14:30.194Z,99.90
2023-03-05T09:16:57.923Z,99.90
2023-03-05T09:19:25.170Z,99.90
2023-03-05T09:21:52.884Z,99.90
2023-03-05T09:24:21.243Z,99.90
2023-03-05T09:26:48.480Z,99.90
2023-03-05T09:29:15.671Z,99.90
2023-03-05T09:31:44.181Z,99.90
2023-03-05T09:34:11.767Z,99.90
2023-03-05T09:36:38.989Z,99.90
2023-03-05T09:39:07.102Z,99.90
2023-03-05T09:41:49.573Z,99.90
2023-03-05T09:44:27.361Z,99.90
2023-03-05T09:46:55.786Z,99.90
2023-03-05T09:49:39.276Z,99.90
2023-03-05T09:52:20.810Z,99.90
2023-03-05T09:54:49.522Z,99.90
2023-03-05T09:57:22.756Z,99.90
2023-03-05T09:59:51.808Z,99.90
2023-03-05T10:02:31.366Z,99.90
2023-03-05T10:05:02.620Z,99.90
2023-03-05T10:07:34.271Z,99.90
2023-03-05T10:10:03.000Z,99.90
2023-03-05T10:12:56.430Z,99.90
2023-03-05T10:15:32.611Z,99.90
2023-03-05T10:18:18.641Z,99.90
2023-03-05T10:20:51.849Z,99.90
2023-03-05T10:23:30.340Z,99.90
2023-03-05T10:26:03.576Z,99.90
2023-03-05T10:28:33.580Z,99.90
2023-03-05T10:31:24.983Z,99.90
2023-03-05T10:33:52.250Z,99.90
2023-03-05T10:36:19.450Z,99.90
2023-03-05T10:41:26.722Z,99.90
2023-03-05T10:44:11.485Z,99.90
2023-03-05T10:46:39.776Z,99.90
2023-03-05T10:49:12.767Z,99.90
2023-03-05T10:51:44.209Z,99.90
2023-03-05T10:54:30.022Z,99.90
2023-03-05T10:57:04.386Z,99.90
2023-03-05T10:59:32.347Z,99.90
2023-03-05T11:02:05.155Z,99.90
2023-03-05T11:04:36.037Z,99.70
2023-03-05T11:07:26.671Z,99.90
2023-03-05T11:10:14.133Z,99.00
2023-03-05T11:12:41.404Z,99.90
2023-03-05T11:15:14.498Z,99.90
2023-03-05T11:17:47.940Z,99.90
2023-03-05T11:20:27.259Z,99.90
2023-03-05T11:23:04.009Z,99.90
2023-03-05T11:25:31.491Z,99.90
2023-03-05T11:27:59.935Z,99.50
2023-03-05T11:30:28.810Z,98.80
2023-03-05T11:33:14.860Z,98.50
2023-03-05T11:35:43.242Z,98.80
2023-03-05T11:38:18.367Z,99.70
2023-03-05T11:40:46.390Z,99.40
2023-03-05T11:43:18.188Z,99.90
2023-03-05T11:45:47.222Z,99.60
2023-03-05T11:48:23.460Z,99.80
2023-03-05T11:50:53.433Z,98.60
2023-03-05T11:53:22.563Z,99.10
2023-03-05T11:55:51.951Z,98.70
2023-03-05T11:58:19.096Z,98.50
2023-03-05T12:00:47.106Z,98.60
2023-03-05T12:03:16.157Z,98.80
2023-03-05T12:05:45.772Z,99.90
2023-03-05T12:08:15.091Z,98.70
2023-03-05T12:10:42.269Z,99.60
2023-03-05T12:13:15.349Z,99.10
2023-03-05T12:15:46.525Z,99.00
2023-03-05T12:18:18.654Z,98.40
2023-03-05T12:20:49.099Z,98.80
2023-03-05T12:23:20.638Z,98.90
2023-03-05T12:25:52.339Z,97.90
2023-03-05T12:28:31.498Z,98.60
2023-03-05T12:31:00.720Z,98.00
2023-03-05T12:33:30.775Z,97.30
2023-03-05T12:36:30.428Z,97.70
2023-03-05T12:38:57.728Z,97.20
2023-03-05T12:41:27.447Z,97.20
2023-03-05T12:44:07.383Z,97.10
2023-03-05T12:46:44.254Z,97.10
2023-03-05T12:49:21.213Z,97.30
2023-03-05T12:51:49.871Z,97.50
2023-03-05T12:54:29.444Z,98.30
2023-03-05T12:56:58.284Z,97.70
2023-03-05T12:59:33.224Z,98.90
2023-03-05T13:02:03.050Z,97.90
2023-03-05T13:04:31.831Z,97.10
2023-03-05T13:07:00.574Z,96.90
2023-03-05T13:09:29.938Z,96.90
2023-03-05T13:11:57.455Z,96.40
2023-03-05T13:14:29.995Z,97.40
2023-03-05T13:16:57.364Z,97.70
2023-03-05T13:19:24.753Z,96.60
2023-03-05T13:21:59.490Z,96.70
2023-03-05T13:24:27.136Z,97.20
2023-03-05T13:26:54.355Z,97.30
2023-03-05T13:29:22.678Z,97.60
2023-03-05T13:31:52.071Z,97.10
2023-03-05T13:34:32.112Z,97.20
2023-03-05T13:37:07.535Z,96.90
2023-03-05T13:39:37.347Z,95.90
2023-03-05T13:42:05.591Z,95.80
2023-03-05T13:44:33.755Z,96.10
2023-03-05T13:47:18.129Z,96.50
2023-03-05T13:49:47.219Z,97.00
2023-03-05T13:52:27.909Z,96.10
2023-03-05T13:54:55.455Z,96.40
2023-03-05T13:57:39.008Z,95.40
2023-03-05T14:00:07.591Z,95.70
2023-03-05T14:02:35.317Z,96.80
2023-03-05T14:05:02.633Z,96.40
2023-03-05T14:07:39.852Z,96.90
2023-03-05T14:10:25.997Z,96.80
2023-03-05T14:12:53.366Z,95.50
2023-03-05T14:15:22.179Z,96.40
2023-03-05T14:17:49.592Z,96.20
2023-03-05T14:20:25.885Z,96.50
2023-03-05T14:22:54.637Z,96.30
2023-03-05T14:25:24.790Z,96.10
2023-03-05T14:27:52.354Z,96.20
2023-03-05T14:30:21.393Z,96.40
2023-03-05T14:32:49.311Z,96.70
2023-03-05T14:35:18.501Z,95.10
2023-03-05T14:37:48.905Z,95.40
2023-03-05T14:40:16.258Z,95.20
2023-03-05T14:42:43.463Z,96.70
2023-03-05T14:45:18.512Z,96.90
2023-03-05T14:47:45.811Z,96.20
2023-03-05T14:50:33.386Z,96.10
2023-03-05T14:53:02.617Z,96.40
2023-03-05T14:55:33.764Z,95.70
2023-03-05T14:58:21.879Z,96.10
2023-03-05T15:00:51.135Z,96.00
2023-03-05T15:03:19.035Z,96.30
2023-03-05T15:05:47.692Z,96.00
2023-03-05T15:08:17.327Z,95.80
2023-03-05T15:10:44.559Z,95.70
2023-03-05T15:13:12.716Z,96.50
2023-03-05T15:15:40.400Z,96.30
2023-03-05T15:18:07.747Z,96.00
2023-03-05T15:20:35.293Z,97.00
2023-03-05T15:23:02.628Z,96.80
2023-03-05T15:25:29.993Z,96.90
2023-03-05T15:27:57.200Z,97.00
2023-03-05T15:30:26.516Z,96.50
2023-03-05T15:32:54.881Z,97.00
2023-03-05T15:35:22.666Z,96.40
2023-03-05T15:37:49.912Z,96.20
2023-03-05T15:40:17.443Z,97.10
2023-03-05T15:42:44.672Z,97.50
2023-03-05T15:45:11.942Z,97.40
2023-03-05T15:47:39.294Z,97.90
2023-03-05T15:50:07.155Z,97.80
2023-03-05T15:52:34.384Z,98.00
2023-03-05T15:55:01.954Z,97.60
2023-03-05T15:57:29.238Z,97.80
2023-03-05T15:59:56.526Z,98.00
2023-03-05T16:02:25.102Z,98.10
2023-03-05T16:04:52.329Z,97.50
2023-03-05T16:07:20.317Z,98.00
2023-03-05T16:09:51.116Z,97.20
2023-03-05T16:12:20.328Z,96.90
2023-03-05T16:14:50.812Z,97.20
2023-03-05T16:17:19.568Z,97.60
2023-03-05T16:19:48.347Z,97.70
2023-03-05T16:22:15.831Z,97.70
2023-03-05T16:24:43.104Z,98.40
2023-03-05T16:27:10.637Z,98.50
2023-03-05T16:29:37.966Z,99.00
2023-03-05T16:32:05.389Z,99.40
2023-03-05T16:34:34.518Z,99.40
2023-03-05T16:37:04.409Z,99.50
2023-03-05T16:39:31.652Z,99.90
2023-03-05T16:41:58.830Z,99.90
2023-03-05T16:44:26.033Z,99.90
2023-03-05T16:46:53.974Z,99.90
2023-03-05T16:49:21.359Z,99.90
2023-03-05T16:51:48.640Z,99.90
2023-03-05T16:54:15.840Z,99.90
2023-03-05T16:56:43.089Z,99.90
2023-03-05T16:59:11.585Z,99.90
2023-03-05T17:01:38.755Z,99.90
2023-03-05T17:04:06.280Z,99.90
2023-03-05T17:06:34.812Z,99.90
2023-03-05T17:09:02.569Z,99.90
2023-03-05T17:11:30.030Z,99.90
2023-03-05T17:13:57.269Z,99.90
2023-03-05T17:16:25.358Z,99.90
2023-03-05T17:18:52.686Z,99.90
2023-03-05T17:21:19.975Z,99.90
2023-03-05T17:23:47.179Z,99.90
2023-03-05T17:26:16.322Z,99.90
2023-03-05T17:28:43.965Z,99.90
2023-03-05T17:31:11.759Z,99.90
2023-03-05T17:33:39.506Z,99.90
2023-03-05T17:36:12.630Z,99.90
2023-03-05T17:38:39.831Z,99.90
2023-03-05T17:41:07.098Z,99.90
2023-03-05T17:43:34.455Z,99.90
2023-03-05T17:46:01.944Z,99.90
2023-03-05T17:48:29.244Z,99.90
2023-03-05T17:50:56.916Z,99.90
2023-03-05T17:53:24.114Z,99.90
2023-03-05T17:55:51.676Z,99.90
2023-03-05T17:58:18.976Z,99.90
2023-03-05T18:00:46.255Z,99.90
2023-03-05T18:03:13.543Z,99.90
2023-03-05T18:05:41.144Z,99.90
2023-03-05T18:08:08.390Z,99.90
2023-03-05T18:10:35.791Z,99.90
2023-03-05T18:13:03.139Z,99.90
2023-03-05T18:15:30.359Z,99.90
2023-03-05T18:17:58.593Z,99.90
2023-03-05T18:20:25.798Z,99.90
2023-03-05T18:22:53.076Z,99.90
2023-03-05T18:25:20.391Z,99.90
2023-03-05T18:27:47.655Z,99.90
2023-03-05T18:30:14.837Z,99.90
2023-03-05T18:32:42.000Z,99.90
2023-03-05T18:35:09.472Z,99.90
2023-03-05T18:37:39.758Z,99.90
2023-03-05T18:40:09.683Z,99.90
2023-03-05T18:42:37.115Z,99.90
2023-03-05T18:45:05.893Z,99.90
2023-03-05T18:47:33.956Z,99.90
2023-03-05T18:50:01.191Z,99.90
2023-03-05T18:52:28.434Z,99.90
2023-03-05T18:54:55.694Z,99.90
2023-03-05T18:57:22.918Z,99.90
2023-03-05T18:59:50.123Z,99.90
2023-03-05T19:02:17.471Z,99.90
2023-03-05T19:04:44.698Z,99.90
2023-03-05T19:07:12.005Z,99.90
2023-03-05T19:10:02.275Z,99.90
2023-03-05T19:12:35.057Z,99.90
2023-03-05T19:15:16.542Z,99.90
2023-03-05T19:17:43.909Z,99.90
2023-03-05T19:20:12.358Z,99.90
2023-03-05T19:22:39.713Z,99.90
2023-03-05T19:25:07.235Z,99.90
2023-03-05T19:27:34.531Z,99.90
2023-03-05T19:30:01.884Z,99.90
2023-03-05T19:32:29.352Z,99.90
2023-03-05T19:34:57.251Z,99.90
2023-03-05T19:37:24.859Z,99.90
2023-03-05T19:39:52.268Z,99.90
2023-03-05T19:42:19.801Z,99.90
2023-03-05T19:44:47.060Z,99.90
2023-03-05T19:47:14.462Z,99.90
2023-03-05T19:49:41.720Z,99.90
2023-03-05T19:52:09.018Z,99.90
2023-03-05T19:54:36.237Z,99.90
2023-03-05T19:57:03.513Z,99.90
2023-03-05T19:59:30.726Z,99.90
2023-03-05T20:01:57.938Z,99.90
2023-03-05T20:04:25.167Z,99.90
2023-03-05T20:06:52.365Z,99.90
2023-03-05T20:09:19.623Z,99.90
2023-03-05T20:11:47.211Z,99.90
2023-03-05T20:14:14.712Z,99.90
2023-03-05T20:16:43.305Z,99.90
2023-03-05T20:19:16.136Z,99.90
2023-03-05T20:21:43.919Z,99.90
2023-03-05T20:24:12.784Z,99.90
2023-03-05T20:26:40.952Z,99.90
2023-03-05T20:29:08.424Z,99.90
2023-03-05T20:31:37.008Z,99.90
2023-03-05T20:34:05.017Z,99.90
2023-03-05T20:36:32.278Z,99.90
2023-03-05T20:38:59.568Z,99.90
2023-03-05T20:41:26.910Z,99.90
2023-03-05T20:43:54.175Z,99.90
2023-03-05T20:46:23.170Z,99.90
2023-03-05T20:48:51.663Z,99.90
2023-03-05T20:51:22.533Z,99.90
2023-03-05T20:53:54.154Z,99.90
2023-03-05T20:56:21.387Z,99.90
2023-03-05T20:58:48.585Z,99.90
2023-03-05T21:01:15.813Z,99.90
2023-03-05T21:03:43.057Z,99.90
2023-03-05T21:06:10.340Z,99.90
2023-03-05T21:08:37.545Z,99.90
2023-03-05T21:11:06.840Z,99.90
2023-03-05T21:13:34.354Z,99.90
2023-03-05T21:16:05.423Z,99.90
2023-03-05T21:18:32.732Z,99.90
2023-03-05T21:20:59.889Z,99.90
2023-03-05T21:23:27.278Z,99.90
2023-03-05T21:25:54.450Z,99.90
2023-03-05T21:28:21.877Z,99.90
2023-03-05T21:30:51.759Z,99.90
2023-03-05T21:33:20.870Z,99.90
2023-03-05T21:35:48.332Z,99.90
2023-03-05T21:38:15.582Z,99.90
2023-03-05T21:40:45.531Z,99.90
2023-03-05T21:43:13.455Z,99.90
2023-03-05T21:45:41.346Z,99.90
2023-03-05T21:48:09.030Z,99.90
2023-03-05T21:50:38.345Z,99.90
2023-03-05T21:53:05.580Z,99.90
2023-03-05T21:56:25.262Z,99.90
2023-03-05T21:58:53.181Z,99.90
2023-03-05T22:01:21.176Z,99.90
2023-03-05T22:03:48.955Z,99.90
2023-03-05T22:06:17.206Z,99.90
2023-03-05T22:08:44.512Z,99.90
2023-03-05T22:11:12.616Z,99.90
2023-03-05T22:13:40.166Z,99.90
2023-03-05T22:16:09.161Z,99.90
2023-03-05T22:18:37.537Z,99.90
2023-03-05T22:21:05.122Z,99.90
2023-03-05T22:23:34.166Z,99.90
2023-03-05T22:26:02.864Z,99.90
2023-03-05T22:28:30.105Z,99.90
2023-03-05T22:30:57.405Z,99.90
2023-03-05T22:33:25.384Z,99.90
2023-03-05T22:35:52.666Z,99.90
2023-03-05T22:38:20.282Z,99.90
2023-03-05T22:40:47.984Z,99.90
2023-03-05T22:43:15.659Z,99.90
2023-03-05T22:45:42.923Z,99.90
2023-03-05T22:48:11.041Z,99.90
2023-03-05T22:50:39.063Z,99.90
2023-03-05T22:53:06.274Z,99.90
2023-03-05T22:55:33.451Z,99.90
2023-03-05T22:58:00.640Z,99.90
2023-03-05T23:00:27.885Z,99.90
2023-03-05T23:02:55.163Z,99.90
2023-03-05T23:05:22.376Z,99.90
2023-03-05T23:07:49.781Z,99.90
2023-03-05T23:10:18.676Z,99.90
2023-03-05T23:12:49.388Z,99.90
2023-03-05T23:15:17.962Z,99.90
2023-03-05T23:17:45.607Z,99.90
2023-03-05T23:20:15.971Z,99.90
2023-03-05T23:22:43.870Z,99.90
2023-03-05T23:25:11.884Z,99.90
2023-03-05T23:27:39.072Z,99.90
2023-03-05T23:30:21.481Z,99.90
2023-03-05T23:32:51.741Z,99.90
2023-03-05T23:35:21.279Z,99.90
2023-03-05T23:37:48.549Z,99.90
2023-03-05T23:40:20.719Z,99.90
2023-03-05T23:42:48.424Z,99.90
2023-03-05T23:45:16.734Z,99.90
2023-03-05T23:47:44.577Z,99.90
2023-03-05T23:50:38.243Z,99.90
2023-03-05T23:53:05.642Z,99.90
2023-03-05T23:55:35.686Z,99.90
2023-03-05T23:58:02.988Z,99.90
